Time;durP1;ratioP1;P1;durP2;ratioP2;P2;SDS_P1;SDS_P2;PMS_P1;PMS_P2;Temp;Humidity;BMP_temperature;BMP_pressure;BME280_temperature;BME280_humidity;BME280_pressure;Samples;Min_cycle;Max_cycle;Signal;HPM_P1;HPM_P2
2021/12/31 00:02:16;;;;;;;7.22;2.75;;;12.80;99.90;;;;;;4949771;28;20271;-85
2021/12/31 00:04:42;;;;;;;4.85;2.13;;;12.80;99.90;;;;;;4951148;28;20427;-85
2021/12/31 00:07:07;;;;;;;2.97;2.08;;;12.80;99.90;;;;;;4972801;28;20039;-85
2021/12/31 00:09:33;;;;;;;7.72;2.08;;;12.80;99.90;;;;;;4951419;28;20026;-85
2021/12/31 00:12:07;;;;;;;6.15;2.33;;;12.90;99.90;;;;;;4946720;28;20403;-85
2021/12/31 00:14:33;;;;;;;4.38;2.50;;;12.90;99.90;;;;;;4952535;28;20513;-85
2021/12/31 00:16:59;;;;;;;7.13;2.03;;;12.90;99.90;;;;;;4948340;28;20027;-85
2021/12/31 00:19:26;;;;;;;7.13;2.90;;;12.90;99.90;;;;;;4965580;28;20026;-85
2021/12/31 00:21:52;;;;;;;4.40;2.00;;;12.80;99.90;;;;;;4944703;28;20019;-84
2021/12/31 00:24:18;;;;;;;5.78;1.85;;;12.90;99.90;;;;;;4953255;28;20023;-84
2021/12/31 00:26:43;;;;;;;7.78;2.70;;;12.90;99.90;;;;;;4951842;28;20022;-85
2021/12/31 00:29:09;;;;;;;2.17;1.50;;;12.90;99.90;;;;;;4951055;28;20030;-84
2021/12/31 00:31:34;;;;;;;4.95;2.33;;;12.90;99.90;;;;;;4963192;28;20101;-86
2021/12/31 00:34:00;;;;;;;7.53;2.72;;;12.90;99.90;;;;;;4978259;28;20089;-85
2021/12/31 00:36:42;;;;;;;8.90;2.95;;;12.90;99.90;;;;;;4967152;28;20110;-85
2021/12/31 00:39:07;;;;;;;7.85;3.10;;;12.90;99.90;;;;;;4964944;28;20061;-85
2021/12/31 00:41:33;;;;;;;4.63;1.90;;;12.90;99.90;;;;;;4950714;28;20546;-85
2021/12/31 00:43:59;;;;;;;5.15;2.58;;;12.90;99.90;;;;;;4960018;28;20442;-84
2021/12/31 00:46:25;;;;;;;6.70;2.15;;;12.90;99.90;;;;;;4977461;28;20117;-85
2021/12/31 00:48:51;;;;;;;5.45;2.05;;;12.90;99.90;;;;;;4965078;28;20101;-85
2021/12/31 00:51:16;;;;;;;2.65;1.17;;;12.80;99.90;;;;;;4952954;28;20034;-85
2021/12/31 00:53:42;;;;;;;8.63;2.47;;;12.90;99.90;;;;;;4948735;28;20030;-85
2021/12/31 00:56:07;;;;;;;7.75;2.10;;;12.90;99.90;;;;;;4951765;28;20038;-85
2021/12/31 00:58:33;;;;;;;2.47;1.30;;;12.90;99.90;;;;;;4950426;28;20030;-85
2021/12/31 01:00:58;;;;;;;5.57;1.55;;;12.90;99.90;;;;;;4947113;28;20023;-85
2021/12/31 01:03:24;;;;;;;5.40;2.20;;;12.90;99.90;;;;;;4952904;28;20038;-84
2021/12/31 01:05:49;;;;;;;4.80;1.77;;;12.90;99.90;;;;;;4945331;28;20114;-84
2021/12/31 01:08:15;;;;;;;5.63;2.50;;;13.00;99.90;;;;;;4950805;28;20038;-84
2021/12/31 01:10:40;;;;;;;2.97;1.63;;;12.90;99.90;;;;;;4947123;28;20038;-85
2021/12/31 01:13:11;;;;;;;5.80;2.35;;;13.00;99.90;;;;;;4946997;28;20411;-85
2021/12/31 01:15:41;;;;;;;5.38;1.50;;;12.90;99.90;;;;;;4978837;28;20079;-85
2021/12/31 01:20:36;;;;;;;4.47;1.80;;;12.90;99.90;;;;;;4962858;28;20027;-85
2021/12/31 01:23:03;;;;;;;3.83;1.60;;;13.00;99.90;;;;;;4963380;28;20129;-85
2021/12/31 01:25:28;;;;;;;4.40;1.77;;;13.00;99.90;;;;;;4946846;28;20541;-85
2021/12/31 01:27:54;;;;;;;5.93;1.60;;;13.00;99.90;;;;;;4950480;28;20026;-85
2021/12/31 01:30:20;;;;;;;6.40;2.03;;;13.00;99.90;;;;;;4955146;28;20497;-84
2021/12/31 01:32:46;;;;;;;4.60;1.92;;;13.00;99.90;;;;;;4984047;28;20074;-84
2021/12/31 01:35:12;;;;;;;1.85;1.42;;;13.00;99.90;;;;;;4952082;28;20057;-84
2021/12/31 01:37:38;;;;;;;3.83;1.55;;;13.00;99.90;;;;;;4955590;28;21606;-84
2021/12/31 01:40:04;;;;;;;1.98;1.02;;;13.10;99.90;;;;;;4968772;28;20562;-84
2021/12/31 01:42:33;;;;;;;4.68;1.80;;;13.00;99.90;;;;;;4950575;28;20027;-84
2021/12/31 01:45:13;;;;;;;2.83;1.35;;;13.10;99.90;;;;;;4950778;28;20041;-84
2021/12/31 01:50:19;;;;;;;3.97;1.65;;;13.00;99.90;;;;;;4964901;28;20113;-84
2021/12/31 01:52:45;;;;;;;5.00;1.23;;;13.10;99.90;;;;;;4950819;28;20495;-84
2021/12/31 01:55:11;;;;;;;2.20;1.50;;;13.00;99.90;;;;;;4968431;28;20031;-84
2021/12/31 01:57:38;;;;;;;3.65;1.60;;;13.00;99.90;;;;;;4949796;28;20045;-84
2021/12/31 02:00:04;;;;;;;1.75;1.08;;;13.10;99.90;;;;;;4963394;28;20030;-84
2021/12/31 02:02:29;;;;;;;2.58;1.27;;;13.10;99.90;;;;;;4966656;28;20124;-84
2021/12/31 02:04:55;;;;;;;1.98;0.82;;;13.10;99.90;;;;;;4943948;28;20027;-84
2021/12/31 02:07:21;;;;;;;2.63;1.00;;;13.10;99.90;;;;;;4970090;28;20053;-84
2021/12/31 02:09:50;;;;;;;6.45;1.38;;;13.10;99.90;;;;;;4962965;28;20034;-84
2021/12/31 02:12:16;;;;;;;4.03;1.50;;;13.10;99.90;;;;;;4966326;28;20042;-84
2021/12/31 02:14:42;;;;;;;4.15;1.98;;;13.10;99.90;;;;;;4963765;28;20486;-84
2021/12/31 02:17:09;;;;;;;3.15;1.05;;;13.10;99.90;;;;;;4963713;28;20041;-84
2021/12/31 02:19:35;;;;;;;5.88;1.70;;;13.10;99.90;;;;;;4953722;28;20097;-84
2021/12/31 02:22:02;;;;;;;1.60;1.20;;;13.10;99.90;;;;;;4954098;28;20035;-84
2021/12/31 02:24:28;;;;;;;2.50;0.98;;;13.10;99.90;;;;;;4965183;28;20402;-84
2021/12/31 02:26:53;;;;;;;2.47;1.05;;;13.10;99.90;;;;;;4949608;28;20141;-84
2021/12/31 02:29:19;;;;;;;5.60;1.40;;;13.10;99.90;;;;;;4966505;28;20014;-84
2021/12/31 02:31:45;;;;;;;1.95;1.00;;;13.10;99.90;;;;;;4953141;28;20085;-84
2021/12/31 02:34:11;;;;;;;2.17;0.65;;;13.10;99.90;;;;;;4967454;28;20030;-84
2021/12/31 02:36:36;;;;;;;2.88;1.30;;;13.10;99.90;;;;;;4949524;28;20420;-84
2021/12/31 02:39:03;;;;;;;6.35;1.98;;;13.10;99.90;;;;;;4945025;28;20458;-84
2021/12/31 02:41:28;;;;;;;6.20;1.52;;;13.10;99.90;;;;;;4951031;28;20088;-84
2021/12/31 02:43:55;;;;;;;1.98;1.02;;;13.10;99.90;;;;;;4950283;28;20031;-84
2021/12/31 02:46:20;;;;;;;2.35;1.10;;;13.10;99.90;;;;;;4964455;28;20482;-84
2021/12/31 02:48:55;;;;;;;2.92;1.27;;;13.20;99.90;;;;;;4962160;28;20030;-84
2021/12/31 02:51:20;;;;;;;3.78;1.63;;;13.10;99.90;;;;;;4967953;28;20450;-84
2021/12/31 02:53:46;;;;;;;4.22;1.40;;;13.20;99.90;;;;;;4946049;28;20034;-84
2021/12/31 02:56:12;;;;;;;3.53;1.23;;;13.20;99.90;;;;;;4965446;28;20031;-84
2021/12/31 02:58:39;;;;;;;3.60;1.95;;;13.20;99.90;;;;;;4951148;28;20046;-84
2021/12/31 03:01:05;;;;;;;1.33;1.02;;;13.20;99.90;;;;;;4964418;28;20041;-84
2021/12/31 03:03:31;;;;;;;1.25;0.95;;;13.20;99.90;;;;;;4947590;28;20080;-84
2021/12/31 03:05:56;;;;;;;7.05;1.88;;;13.20;99.90;;;;;;4948748;28;20506;-84
2021/12/31 03:08:24;;;;;;;2.97;1.50;;;13.10;99.90;;;;;;4953562;28;20042;-84
2021/12/31 03:10:50;;;;;;;1.58;1.35;;;13.10;99.90;;;;;;4947634;28;20101;-84
2021/12/31 03:13:15;;;;;;;4.28;1.58;;;13.10;99.90;;;;;;4965557;28;20391;-84
2021/12/31 03:15:41;;;;;;;1.65;1.08;;;13.20;99.90;;;;;;4947189;28;20689;-83
2021/12/31 03:18:07;;;;;;;6.80;1.77;;;13.20;99.90;;;;;;4964089;28;20069;-83
2021/12/31 03:20:46;;;;;;;3.05;1.48;;;13.20;99.90;;;;;;4951654;28;20029;-83
2021/12/31 03:23:12;;;;;;;2.83;1.20;;;13.10;99.90;;;;;;4952597;28;20077;-83
2021/12/31 03:25:37;;;;;;;4.10;1.42;;;13.10;99.90;;;;;;4946750;28;20118;-83
2021/12/31 03:28:04;;;;;;;5.20;1.88;;;13.20;99.90;;;;;;4948762;28;20041;-83
2021/12/31 03:30:29;;;;;;;4.10;1.63;;;13.20;99.90;;;;;;4945255;28;20093;-83
2021/12/31 03:32:55;;;;;;;1.83;1.23;;;13.20;99.90;;;;;;4969284;28;20030;-83
2021/12/31 03:35:20;;;;;;;2.58;0.90;;;13.10;99.90;;;;;;4963939;28;20035;-84
2021/12/31 03:37:46;;;;;;;3.10;1.38;;;13.10;99.90;;;;;;4948625;28;20495;-84
2021/12/31 03:40:12;;;;;;;4.75;1.08;;;13.20;99.90;;;;;;4963914;28;20501;-84
2021/12/31 03:42:40;;;;;;;2.58;1.33;;;13.20;99.90;;;;;;4950725;28;20525;-84
2021/12/31 03:45:06;;;;;;;4.68;1.33;;;13.20;99.90;;;;;;4982380;28;20038;-84
2021/12/31 03:47:32;;;;;;;1.70;0.95;;;13.20;99.90;;;;;;4967948;28;20089;-84
2021/12/31 03:49:57;;;;;;;5.40;1.73;;;13.20;99.90;;;;;;4950891;28;20039;-84
2021/12/31 03:52:23;;;;;;;4.20;1.42;;;13.20;99.90;;;;;;4965020;28;20629;-84
2021/12/31 03:54:48;;;;;;;4.22;1.83;;;13.30;99.90;;;;;;4946753;28;20089;-84
2021/12/31 03:57:14;;;;;;;1.88;1.30;;;13.20;99.90;;;;;;4947392;28;20080;-84
2021/12/31 03:59:39;;;;;;;1.02;0.93;;;13.20;99.90;;;;;;4953225;28;20034;-84
2021/12/31 04:02:05;;;;;;;2.95;0.93;;;13.20;99.90;;;;;;4963371;28;20106;-84
2021/12/31 04:04:30;;;;;;;2.38;1.33;;;13.20;99.90;;;;;;4946745;28;20110;-84
2021/12/31 04:06:56;;;;;;;7.30;1.30;;;13.20;99.90;;;;;;4966696;28;20054;-84
2021/12/31 04:09:21;;;;;;;2.53;1.00;;;13.20;99.90;;;;;;4951368;28;20030;-84
2021/12/31 04:11:47;;;;;;;4.22;1.33;;;13.20;99.90;;;;;;4980900;28;20444;-84
2021/12/31 04:14:12;;;;;;;3.45;1.13;;;13.20;99.90;;;;;;4947906;28;20029;-84
2021/12/31 04:16:38;;;;;;;5.55;1.55;;;13.30;99.90;;;;;;4934064;28;20116;-84
2021/12/31 04:19:03;;;;;;;2.85;1.45;;;13.20;99.90;;;;;;4949896;28;20482;-84
2021/12/31 04:21:31;;;;;;;1.77;1.45;;;13.20;99.90;;;;;;4953293;28;20092;-84
2021/12/31 04:24:16;;;;;;;4.75;1.13;;;13.20;99.90;;;;;;4963518;28;20034;-84
2021/12/31 04:26:42;;;;;;;2.83;1.30;;;13.20;99.90;;;;;;4965917;28;20438;-84
2021/12/31 04:29:07;;;;;;;1.38;1.10;;;13.20;99.90;;;;;;4965973;28;20038;-84
2021/12/31 04:31:33;;;;;;;5.63;1.60;;;13.20;99.90;;;;;;4950055;28;20031;-84
2021/12/31 04:33:59;;;;;;;2.58;0.70;;;13.30;99.90;;;;;;4952167;28;20054;-84
2021/12/31 04:36:25;;;;;;;6.55;1.50;;;13.20;99.90;;;;;;4950593;28;20399;-85
2021/12/31 04:38:50;;;;;;;3.90;1.92;;;13.20;99.90;;;;;;4952312;28;20034;-84
2021/12/31 04:41:16;;;;;;;3.83;1.30;;;13.20;99.90;;;;;;4948646;28;20047;-84
2021/12/31 04:43:41;;;;;;;3.47;1.45;;;13.20;99.90;;;;;;4946168;28;20041;-84
2021/12/31 04:46:07;;;;;;;2.67;1.33;;;13.20;99.90;;;;;;4945547;28;20047;-84
2021/12/31 04:48:33;;;;;;;1.45;1.00;;;13.20;99.90;;;;;;4952906;28;20050;-84
2021/12/31 04:50:58;;;;;;;3.95;1.02;;;13.30;99.90;;;;;;4961487;28;20058;-84
2021/12/31 04:53:24;;;;;;;3.80;1.60;;;13.20;99.90;;;;;;4947051;28;20056;-84
2021/12/31 04:55:50;;;;;;;7.28;1.15;;;13.20;99.90;;;;;;4961756;28;20410;-84
2021/12/31 04:58:16;;;;;;;3.53;1.35;;;13.30;99.90;;;;;;4950438;28;20038;-84
2021/12/31 05:00:41;;;;;;;2.63;1.27;;;13.20;99.90;;;;;;4963231;28;20145;-84
2021/12/31 05:03:11;;;;;;;3.85;1.48;;;13.20;99.90;;;;;;4967753;28;20073;-84
2021/12/31 05:05:36;;;;;;;4.07;1.45;;;13.20;99.90;;;;;;4971919;28;20110;-84
2021/12/31 05:08:03;;;;;;;6.80;1.13;;;13.20;99.90;;;;;;4954891;28;20527;-84
2021/12/31 05:10:32;;;;;;;3.70;1.20;;;13.20;99.90;;;;;;4964255;28;20034;-84
2021/12/31 05:13:02;;;;;;;3.28;1.15;;;13.10;99.90;;;;;;4954615;28;20482;-84
2021/12/31 05:15:32;;;;;;;1.08;0.80;;;13.20;99.90;;;;;;4955846;28;20030;-84
2021/12/31 05:17:57;;;;;;;4.53;1.48;;;13.20;99.90;;;;;;4957582;28;20046;-85
2021/12/31 05:20:25;;;;;;;3.75;0.68;;;13.20;99.90;;;;;;4946749;28;20574;-84
2021/12/31 05:22:52;;;;;;;3.88;1.20;;;13.10;99.90;;;;;;4969463;28;20399;-84
2021/12/31 05:25:18;;;;;;;1.75;1.00;;;13.20;99.90;;;;;;4952998;28;20070;-84
2021/12/31 05:27:43;;;;;;;11.88;1.42;;;13.20;99.90;;;;;;4951326;28;20054;-84
2021/12/31 05:30:10;;;;;;;3.75;1.80;;;13.10;99.90;;;;;;4951847;28;20034;-84
2021/12/31 05:32:35;;;;;;;2.78;0.77;;;13.10;99.90;;;;;;4955183;28;20027;-84
2021/12/31 05:35:01;;;;;;;1.92;0.77;;;13.10;99.90;;;;;;4964888;28;20047;-84
2021/12/31 05:37:26;;;;;;;2.25;0.88;;;13.10;99.90;;;;;;4951130;28;20034;-84
2021/12/31 05:39:52;;;;;;;1.80;1.23;;;13.10;99.90;;;;;;4956211;28;20084;-84
2021/12/31 05:42:17;;;;;;;1.10;0.80;;;13.10;99.90;;;;;;4967082;28;20049;-84
2021/12/31 05:44:43;;;;;;;1.85;0.52;;;13.10;99.90;;;;;;4977048;28;20031;-84
2021/12/31 05:47:09;;;;;;;3.47;1.05;;;13.10;99.90;;;;;;4966538;28;20105;-84
2021/12/31 05:49:35;;;;;;;1.40;1.00;;;13.10;99.90;;;;;;4953849;28;20085;-85
2021/12/31 05:52:00;;;;;;;1.60;0.77;;;13.10;99.90;;;;;;4947533;28;20708;-83
2021/12/31 05:54:26;;;;;;;1.63;0.65;;;13.10;99.90;;;;;;4966716;28;20065;-85
2021/12/31 05:56:52;;;;;;;1.33;0.70;;;13.10;99.90;;;;;;4946416;28;20055;-85
2021/12/31 05:59:17;;;;;;;1.65;0.75;;;13.10;99.90;;;;;;4963628;28;20042;-85
2021/12/31 06:01:43;;;;;;;4.20;1.48;;;13.10;99.90;;;;;;4949674;28;20034;-85
2021/12/31 06:04:08;;;;;;;1.85;0.80;;;13.00;99.90;;;;;;4951854;28;20038;-85
2021/12/31 06:06:34;;;;;;;1.60;1.10;;;13.10;99.90;;;;;;4953631;28;20050;-84
2021/12/31 06:08:59;;;;;;;0.70;0.70;;;13.10;99.90;;;;;;4954070;28;20038;-84
2021/12/31 06:11:25;;;;;;;1.80;1.08;;;13.10;99.90;;;;;;4967259;28;20026;-85
2021/12/31 06:14:00;;;;;;;2.55;1.10;;;13.00;99.90;;;;;;4953454;28;20045;-84
2021/12/31 06:16:26;;;;;;;3.33;1.23;;;13.00;99.90;;;;;;4950534;28;20771;-84
2021/12/31 06:18:52;;;;;;;2.25;1.02;;;13.00;99.90;;;;;;4949759;28;20047;-85
2021/12/31 06:21:17;;;;;;;3.67;1.65;;;13.00;99.90;;;;;;4953076;28;20038;-85
2021/12/31 06:23:43;;;;;;;3.40;1.15;;;13.00;99.90;;;;;;4952392;28;20146;-85
2021/12/31 06:26:09;;;;;;;1.95;1.10;;;13.00;99.90;;;;;;4953307;28;20402;-84
2021/12/31 06:28:35;;;;;;;6.13;1.40;;;13.00;99.90;;;;;;4955163;28;20031;-85
2021/12/31 06:31:01;;;;;;;6.18;1.10;;;13.00;99.90;;;;;;4951197;28;20030;-85
2021/12/31 06:33:26;;;;;;;0.65;0.63;;;13.00;99.90;;;;;;4944286;28;20165;-85
2021/12/31 06:35:52;;;;;;;4.22;2.08;;;13.00;99.90;;;;;;4947863;28;20069;-85
2021/12/31 06:38:18;;;;;;;4.85;1.10;;;13.00;99.90;;;;;;4963929;28;20034;-85
2021/12/31 06:40:43;;;;;;;3.80;1.45;;;13.00;99.90;;;;;;4954660;28;20034;-85
2021/12/31 06:43:09;;;;;;;4.03;1.67;;;13.10;99.90;;;;;;4951173;28;20505;-84
2021/12/31 06:45:35;;;;;;;4.88;0.80;;;13.00;99.90;;;;;;4950240;28;20184;-84
2021/12/31 06:48:00;;;;;;;6.47;1.10;;;13.00;99.90;;;;;;4953609;28;20022;-85
2021/12/31 06:50:26;;;;;;;2.22;0.80;;;13.00;99.90;;;;;;4965587;28;20038;-85
2021/12/31 06:52:51;;;;;;;2.40;0.90;;;12.90;99.90;;;;;;4981433;28;20038;-85
2021/12/31 06:55:17;;;;;;;2.15;1.85;;;12.90;99.90;;;;;;4951216;28;20031;-84
2021/12/31 06:57:42;;;;;;;3.00;1.13;;;12.90;99.90;;;;;;4964999;28;20062;-85
2021/12/31 07:00:09;;;;;;;3.20;1.40;;;12.90;99.90;;;;;;4966005;28;20471;-85
2021/12/31 07:02:34;;;;;;;3.40;1.35;;;12.80;99.90;;;;;;4967999;28;20118;-85
2021/12/31 07:05:00;;;;;;;3.33;1.35;;;12.80;99.90;;;;;;4952247;28;20538;-85
2021/12/31 07:07:26;;;;;;;2.42;1.00;;;12.80;99.90;;;;;;4976763;28;20065;-86
2021/12/31 07:09:51;;;;;;;2.67;1.10;;;12.80;99.90;;;;;;4950461;28;20034;-88
2021/12/31 07:12:17;;;;;;;1.42;1.05;;;12.70;99.90;;;;;;4946700;28;20503;-88
2021/12/31 07:14:42;;;;;;;4.07;1.05;;;12.70;99.90;;;;;;4951315;28;20109;-89
2021/12/31 07:17:08;;;;;;;4.72;1.27;;;12.70;99.90;;;;;;4949405;28;20026;-87
2021/12/31 07:19:34;;;;;;;4.68;1.63;;;12.70;99.90;;;;;;4953015;28;20038;-88
2021/12/31 07:22:00;;;;;;;1.52;1.15;;;12.60;99.90;;;;;;4960912;28;20506;-88
2021/12/31 07:24:26;;;;;;;2.88;1.20;;;12.60;99.90;;;;;;4955134;28;20034;-89
2021/12/31 07:26:52;;;;;;;4.82;1.67;;;12.60;99.90;;;;;;4953637;28;20041;-88
2021/12/31 07:29:17;;;;;;;4.75;1.60;;;12.50;99.90;;;;;;4966565;28;20096;-88
2021/12/31 07:31:43;;;;;;;1.75;1.60;;;12.50;99.90;;;;;;4948735;28;20514;-88
2021/12/31 07:34:09;;;;;;;2.33;1.13;;;12.50;99.90;;;;;;4952894;28;20034;-84
2021/12/31 07:36:35;;;;;;;4.43;1.50;;;12.50;99.90;;;;;;4958553;28;20038;-84
2021/12/31 07:39:05;;;;;;;1.60;1.20;;;12.40;99.90;;;;;;4962214;28;20037;-84
2021/12/31 07:41:31;;;;;;;3.13;1.80;;;12.50;99.90;;;;;;4939108;28;20157;-84
2021/12/31 07:43:56;;;;;;;0.80;0.63;;;12.40;99.90;;;;;;4946862;28;20145;-84
2021/12/31 07:46:22;;;;;;;4.30;1.67;;;12.40;99.90;;;;;;4961208;28;20042;-84
2021/12/31 07:48:47;;;;;;;3.80;1.85;;;12.40;99.90;;;;;;4946431;28;20035;-84
2021/12/31 07:51:13;;;;;;;3.03;2.25;;;12.40;99.90;;;;;;4945065;28;20507;-84
2021/12/31 07:53:38;;;;;;;3.60;1.75;;;12.40;99.90;;;;;;4947722;28;20019;-84
2021/12/31 07:56:04;;;;;;;1.73;1.45;;;12.40;99.90;;;;;;4943364;28;20050;-84
2021/12/31 07:58:30;;;;;;;2.72;1.58;;;12.30;99.90;;;;;;4977641;28;20041;-84
2021/12/31 08:00:55;;;;;;;2.90;1.65;;;12.40;99.90;;;;;;4962358;28;20033;-84
2021/12/31 08:03:21;;;;;;;2.65;1.83;;;12.40;99.90;;;;;;4951674;28;20037;-84
2021/12/31 08:05:46;;;;;;;4.82;1.75;;;12.40;99.90;;;;;;4945689;28;20027;-84
2021/12/31 08:08:12;;;;;;;5.32;1.98;;;12.40;99.90;;;;;;4949542;28;20046;-84
2021/12/31 08:10:40;;;;;;;3.17;1.20;;;12.40;99.90;;;;;;4962257;28;20038;-83
2021/12/31 08:13:06;;;;;;;1.20;0.80;;;12.40;99.90;;;;;;4949951;28;20565;-84
2021/12/31 08:15:32;;;;;;;2.38;1.27;;;12.50;99.90;;;;;;4979089;28;20065;-83
2021/12/31 08:17:57;;;;;;;2.95;1.13;;;12.50;99.90;;;;;;4953392;28;20049;-84
2021/12/31 08:20:23;;;;;;;1.63;1.52;;;12.50;99.90;;;;;;4950960;28;20034;-84
2021/12/31 08:22:49;;;;;;;1.40;1.30;;;12.60;99.90;;;;;;4960888;28;20867;-84
2021/12/31 08:25:15;;;;;;;3.88;2.20;;;12.60;99.90;;;;;;4962594;28;20034;-84
2021/12/31 08:27:40;;;;;;;3.47;1.65;;;12.50;99.90;;;;;;4948020;28;20042;-84
2021/12/31 08:30:07;;;;;;;2.42;1.17;;;12.60;99.90;;;;;;4947358;28;20521;-84
2021/12/31 08:32:36;;;;;;;3.42;1.00;;;12.60;99.90;;;;;;4962565;28;20038;-84
2021/12/31 08:35:02;;;;;;;5.15;1.90;;;12.60;99.90;;;;;;4948774;28;20509;-84
2021/12/31 08:37:27;;;;;;;5.28;1.63;;;12.60;99.90;;;;;;4962579;28;20069;-84
2021/12/31 08:39:53;;;;;;;2.92;1.10;;;12.50;99.90;;;;;;4953012;28;20029;-84
2021/12/31 08:42:21;;;;;;;2.53;1.40;;;12.50;99.90;;;;;;4965602;28;20397;-84
2021/12/31 08:44:46;;;;;;;3.10;1.10;;;12.50;99.90;;;;;;4949838;28;21038;-84
2021/12/31 08:47:12;;;;;;;4.78;1.20;;;12.50;99.90;;;;;;4962750;28;20031;-84
2021/12/31 08:49:37;;;;;;;6.05;1.55;;;12.50;99.90;;;;;;4956300;28;20085;-84
2021/12/31 08:52:03;;;;;;;4.75;0.85;;;12.50;99.90;;;;;;4953121;28;20042;-84
2021/12/31 08:54:29;;;;;;;6.45;1.67;;;12.50;99.90;;;;;;4965767;28;20038;-84
2021/12/31 08:56:55;;;;;;;1.65;1.10;;;12.40;99.90;;;;;;4949884;28;20026;-84
2021/12/31 08:59:20;;;;;;;1.17;1.00;;;12.50;99.90;;;;;;4977819;28;20034;-84
2021/12/31 09:01:46;;;;;;;6.68;1.00;;;12.50;99.90;;;;;;4948930;28;20487;-84
2021/12/31 09:04:12;;;;;;;3.25;1.65;;;12.50;99.90;;;;;;4980306;28;20376;-84
2021/12/31 09:06:37;;;;;;;3.45;1.70;;;12.50;99.90;;;;;;4949323;28;20039;-84
2021/12/31 09:09:03;;;;;;;2.78;1.40;;;12.50;99.90;;;;;;4985432;28;20665;-84
2021/12/31 09:11:29;;;;;;;1.88;1.35;;;12.60;99.90;;;;;;4950907;28;20470;-84
2021/12/31 09:13:55;;;;;;;3.47;1.45;;;12.50;99.90;;;;;;4963611;28;20031;-84
2021/12/31 09:16:21;;;;;;;3.03;1.45;;;12.50;99.90;;;;;;4956203;28;20039;-84
2021/12/31 09:18:47;;;;;;;3.13;1.55;;;12.50;99.90;;;;;;4964815;28;20058;-84
2021/12/31 09:21:17;;;;;;;2.90;1.00;;;12.60;99.90;;;;;;4962661;28;20038;-84
2021/12/31 09:23:43;;;;;;;2.70;1.15;;;12.50;99.90;;;;;;4952691;28;20032;-84
2021/12/31 09:26:09;;;;;;;2.17;1.08;;;12.50;99.90;;;;;;4963536;28;20034;-84
2021/12/31 09:28:35;;;;;;;2.08;1.50;;;12.50;99.90;;;;;;4961721;28;20041;-85
2021/12/31 09:31:02;;;;;;;1.98;1.20;;;12.60;99.90;;;;;;4949548;28;20501;-85
2021/12/31 09:33:28;;;;;;;2.33;1.15;;;12.60;99.90;;;;;;4967748;28;21192;-85
2021/12/31 09:35:54;;;;;;;1.50;1.00;;;12.60;99.90;;;;;;4965689;28;20034;-85
2021/12/31 09:38:19;;;;;;;3.05;1.60;;;12.60;99.90;;;;;;4977550;28;20553;-85
2021/12/31 09:40:45;;;;;;;1.98;1.33;;;12.60;99.90;;;;;;4983518;28;20487;-85
2021/12/31 09:43:12;;;;;;;2.60;1.15;;;12.70;99.90;;;;;;4951671;28;20038;-85
2021/12/31 09:45:42;;;;;;;1.67;1.30;;;12.70;99.90;;;;;;4961946;28;20114;-85
2021/12/31 09:48:14;;;;;;;3.15;1.58;;;12.70;99.90;;;;;;4971472;28;20065;-85
2021/12/31 09:50:42;;;;;;;3.72;0.98;;;12.80;99.90;;;;;;4960983;28;20027;-84
2021/12/31 09:53:09;;;;;;;2.35;1.42;;;12.80;99.90;;;;;;4953273;28;20031;-84
2021/12/31 09:55:46;;;;;;;4.78;1.35;;;12.80;99.90;;;;;;4954363;28;20137;-84
2021/12/31 09:58:12;;;;;;;1.50;1.15;;;12.80;99.90;;;;;;4968356;28;20138;-83
2021/12/31 10:00:41;;;;;;;8.27;1.65;;;12.80;99.90;;;;;;4961905;28;20038;-85
2021/12/31 10:03:22;;;;;;;3.45;1.20;;;12.90;99.90;;;;;;4951890;28;20121;-84
2021/12/31 10:05:49;;;;;;;5.82;1.70;;;12.80;99.90;;;;;;4950832;28;20045;-84
2021/12/31 10:08:19;;;;;;;4.70;1.10;;;12.80;99.90;;;;;;4947376;28;20049;-85
2021/12/31 10:11:01;;;;;;;1.02;0.93;;;12.80;99.90;;;;;;4947049;28;20077;-85
2021/12/31 10:13:27;;;;;;;4.55;1.00;;;12.80;99.90;;;;;;4963742;28;20042;-85
2021/12/31 10:15:54;;;;;;;3.88;1.15;;;12.80;99.90;;;;;;4951846;28;20089;-85
2021/12/31 10:18:20;;;;;;;2.50;1.30;;;12.80;99.90;;;;;;4979940;28;20046;-85
2021/12/31 10:20:49;;;;;;;1.13;0.85;;;12.80;99.90;;;;;;4963827;28;20035;-85
2021/12/31 10:23:16;;;;;;;2.38;1.60;;;12.80;99.90;;;;;;4954309;28;20030;-85
2021/12/31 10:25:41;;;;;;;3.92;1.27;;;12.80;99.90;;;;;;4953654;28;20434;-85
2021/12/31 10:28:09;;;;;;;3.67;1.25;;;12.80;99.90;;;;;;4960753;28;20065;-85
2021/12/31 10:30:35;;;;;;;0.80;0.80;;;12.90;99.90;;;;;;4944161;28;20118;-85
2021/12/31 10:33:00;;;;;;;2.58;0.90;;;12.90;99.90;;;;;;4950084;28;20141;-85
2021/12/31 10:35:26;;;;;;;2.50;0.50;;;12.90;99.90;;;;;;4967167;28;20530;-85
2021/12/31 10:38:01;;;;;;;5.22;1.17;;;13.00;99.90;;;;;;4961784;28;20499;-85
2021/12/31 10:40:39;;;;;;;0.77;0.50;;;13.00;99.90;;;;;;4978751;28;20394;-85
2021/12/31 10:43:21;;;;;;;3.55;1.80;;;13.00;99.90;;;;;;4953276;28;20121;-85
2021/12/31 10:46:07;;;;;;;1.65;0.88;;;13.00;99.90;;;;;;4949078;28;20027;-85
2021/12/31 10:48:46;;;;;;;3.97;0.90;;;13.00;99.90;;;;;;4950072;28;20026;-85
2021/12/31 10:51:16;;;;;;;0.85;0.60;;;13.00;99.90;;;;;;4969525;28;20386;-85
2021/12/31 10:53:49;;;;;;;1.33;0.82;;;13.00;99.90;;;;;;4964464;28;20045;-84
2021/12/31 10:56:14;;;;;;;3.00;1.58;;;13.00;99.90;;;;;;4948465;28;20034;-84
2021/12/31 10:58:42;;;;;;;1.95;1.50;;;13.00;99.90;;;;;;4953107;28;20027;-85
2021/12/31 11:01:12;;;;;;;1.80;1.30;;;13.10;99.90;;;;;;4949132;28;20042;-85
2021/12/31 11:03:38;;;;;;;3.55;0.95;;;13.10;99.90;;;;;;4960994;28;20406;-85
2021/12/31 11:06:06;;;;;;;2.38;1.00;;;13.10;99.90;;;;;;4961482;28;20038;-85
2021/12/31 11:08:32;;;;;;;1.27;1.17;;;13.20;99.90;;;;;;4966038;28;20462;-85
2021/12/31 11:10:57;;;;;;;1.27;1.00;;;13.10;99.90;;;;;;4949585;28;20122;-85
2021/12/31 11:13:26;;;;;;;1.50;0.98;;;13.20;99.90;;;;;;4948278;28;20045;-85
2021/12/31 11:15:53;;;;;;;1.38;1.27;;;13.10;99.90;;;;;;4965643;28;20035;-85
2021/12/31 11:18:23;;;;;;;1.13;1.02;;;13.20;99.90;;;;;;4963142;28;20093;-85
2021/12/31 11:20:49;;;;;;;1.23;0.80;;;13.20;99.90;;;;;;4952673;28;20046;-85
2021/12/31 11:23:15;;;;;;;1.40;1.05;;;13.10;99.90;;;;;;4961678;28;20029;-85
2021/12/31 11:26:11;;;;;;;4.70;1.50;;;13.10;99.90;;;;;;4953792;28;20039;-84
2021/12/31 11:28:38;;;;;;;0.63;0.55;;;13.00;99.90;;;;;;4963431;28;20045;-84
2021/12/31 11:31:19;;;;;;;0.70;0.70;;;13.00;99.90;;;;;;4948902;28;20050;-84
2021/12/31 11:33:56;;;;;;;1.98;0.70;;;13.00;99.90;;;;;;4975139;28;20137;-84
2021/12/31 11:36:39;;;;;;;2.00;1.25;;;13.00;99.90;;;;;;4980211;28;20553;-84
2021/12/31 11:39:15;;;;;;;4.18;1.75;;;13.00;99.90;;;;;;4959437;28;20046;-84
2021/12/31 11:41:41;;;;;;;1.67;1.10;;;13.00;99.90;;;;;;4958217;28;20387;-84
2021/12/31 11:44:10;;;;;;;2.45;1.40;;;13.00;99.90;;;;;;4944070;28;20129;-84
2021/12/31 11:46:37;;;;;;;4.70;1.25;;;13.00;99.90;;;;;;4947799;28;20038;-84
2021/12/31 11:49:07;;;;;;;1.08;0.98;;;13.00;99.90;;;;;;4965587;28;20034;-84
2021/12/31 11:51:34;;;;;;;3.88;1.30;;;13.00;99.90;;;;;;4944021;28;20027;-84
2021/12/31 11:54:00;;;;;;;4.00;1.40;;;13.10;99.90;;;;;;4962040;28;20040;-84
2021/12/31 11:56:34;;;;;;;1.80;0.98;;;13.10;99.90;;;;;;4965229;28;20424;-84
2021/12/31 11:59:08;;;;;;;1.73;1.10;;;13.10;99.90;;;;;;4983107;28;20042;-85
2021/12/31 12:01:37;;;;;;;3.15;1.10;;;13.10;99.90;;;;;;4979247;28;20728;-84
2021/12/31 12:04:28;;;;;;;2.63;1.42;;;13.20;99.90;;;;;;4975821;28;20034;-85
2021/12/31 12:07:16;;;;;;;1.65;1.10;;;13.20;99.90;;;;;;4976437;28;20586;-84
2021/12/31 12:09:47;;;;;;;2.88;1.30;;;13.20;99.90;;;;;;4976854;28;20030;-84
2021/12/31 12:12:35;;;;;;;1.63;1.17;;;13.30;99.90;;;;;;4982525;28;20034;-84
2021/12/31 12:15:21;;;;;;;3.72;1.10;;;13.30;99.90;;;;;;4949192;28;20054;-84
2021/12/31 12:17:48;;;;;;;0.93;0.88;;;13.40;99.90;;;;;;4273719;28;9999778;-84
2021/12/31 12:20:19;;;;;;;2.22;1.58;;;13.40;99.90;;;;;;4951182;28;20092;-84
2021/12/31 12:22:53;;;;;;;1.63;1.10;;;13.40;99.90;;;;;;4960065;28;21050;-84
2021/12/31 12:25:27;;;;;;;1.63;1.30;;;13.40;99.90;;;;;;4962386;28;20035;-84
2021/12/31 12:27:56;;;;;;;2.95;1.10;;;13.40;99.90;;;;;;4980918;28;20056;-84
2021/12/31 12:30:22;;;;;;;4.07;1.58;;;13.50;99.90;;;;;;4956980;28;20034;-84
2021/12/31 12:35:17;;;;;;;0.52;0.52;;;13.70;99.90;;;;;;4964713;28;20439;-84
2021/12/31 12:38:01;;;;;;;0.60;0.60;;;13.70;99.90;;;;;;4965936;28;20601;-85
2021/12/31 12:40:41;;;;;;;2.85;0.85;;;13.70;99.90;;;;;;4974474;28;20110;-84
2021/12/31 12:43:21;;;;;;;2.60;1.05;;;13.80;99.90;;;;;;4961943;28;20105;-84
2021/12/31 12:45:55;;;;;;;1.40;0.90;;;13.80;99.90;;;;;;4963983;28;20030;-84
2021/12/31 12:48:36;;;;;;;0.88;0.77;;;13.80;99.90;;;;;;4958343;28;20027;-85
2021/12/31 12:51:06;;;;;;;1.45;0.73;;;13.90;99.90;;;;;;4602450;28;10000574;-85
2021/12/31 12:53:33;;;;;;;3.30;1.33;;;13.90;99.90;;;;;;4948686;28;20037;-84
2021/12/31 12:56:03;;;;;;;1.73;1.15;;;13.90;99.90;;;;;;4945382;28;20034;-84